sensor_id;sensor_type;location;lat;lon;timestamp;pressure;altitude;pressure_sealevel;temperature;humidity
12073;BME280;6098;49.004;8.372;2023-04-28T00:06:10;100099.88;;;15.77;53.33
12073;BME280;6098;49.004;8.372;2023-04-28T00:21:07;100093.02;;;15.80;54.17
12073;BME280;6098;49.004;8.372;2023-04-28T00:35:58;100080.30;;;15.70;55.16
12073;BME280;6098;49.004;8.372;2023-04-28T00:50:48;100066.91;;;15.57;56.17
12073;BME280;6098;49.004;8.372;2023-04-28T01:05:41;100044.34;;;15.54;57.16
12073;BME280;6098;49.004;8.372;2023-04-28T01:20:31;100039.88;;;14.99;62.50
12073;BME280;6098;49.004;8.372;2023-04-28T01:35:22;100045.80;;;14.90;62.10
12073;BME280;6098;49.004;8.372;2023-04-28T01:50:14;100058.78;;;14.88;64.58
12073;BME280;6098;49.004;8.372;2023-04-28T02:05:06;100043.86;;;14.84;65.02
12073;BME280;6098;49.004;8.372;2023-04-28T02:19:59;100069.41;;;14.81;65.88
12073;BME280;6098;49.004;8.372;2023-04-28T02:34:53;100047.97;;;14.68;68.67
12073;BME280;6098;49.004;8.372;2023-04-28T02:49:49;100063.57;;;14.61;71.17
12073;BME280;6098;49.004;8.372;2023-04-28T03:04:51;100061.41;;;14.38;74.18
12073;BME280;6098;49.004;8.372;2023-04-28T03:19:44;100052.50;;;14.08;76.89
12073;BME280;6098;49.004;8.372;2023-04-28T03:34:48;100033.87;;;13.92;79.60
12073;BME280;6098;49.004;8.372;2023-04-28T03:49:52;100023.06;;;13.79;78.38
12073;BME280;6098;49.004;8.372;2023-04-28T04:04:49;100017.49;;;13.76;77.40
12073;BME280;6098;49.004;8.372;2023-04-28T04:19:48;100003.55;;;13.79;78.61
12073;BME280;6098;49.004;8.372;2023-04-28T04:34:40;99974.00;;;13.83;79.79
12073;BME280;6098;49.004;8.372;2023-04-28T04:49:32;99979.47;;;13.88;80.12
12073;BME280;6098;49.004;8.372;2023-04-28T05:04:24;99995.19;;;14.01;79.51
12073;BME280;6098;49.004;8.372;2023-04-28T05:19:18;99998.89;;;14.05;79.67
12073;BME280;6098;49.004;8.372;2023-04-28T05:34:10;99980.95;;;14.16;80.67
12073;BME280;6098;49.004;8.372;2023-04-28T05:49:02;99971.94;;;14.25;81.46
12073;BME280;6098;49.004;8.372;2023-04-28T06:03:55;99969.11;;;14.35;82.97
12073;BME280;6098;49.004;8.372;2023-04-28T06:18:47;99962.18;;;14.40;84.79
12073;BME280;6098;49.004;8.372;2023-04-28T06:33:40;99958.28;;;14.38;88.87
12073;BME280;6098;49.004;8.372;2023-04-28T06:48:31;99959.74;;;14.36;93.59
12073;BME280;6098;49.004;8.372;2023-04-28T07:03:23;99966.00;;;14.28;98.28
12073;BME280;6098;49.004;8.372;2023-04-28T07:18:15;99971.74;;;14.36;100.00
12073;BME280;6098;49.004;8.372;2023-04-28T07:33:09;100006.37;;;14.37;100.00
12073;BME280;6098;49.004;8.372;2023-04-28T07:48:01;100008.88;;;14.39;100.00
12073;BME280;6098;49.004;8.372;2023-04-28T08:02:54;100007.88;;;14.56;100.00
12073;BME280;6098;49.004;8.372;2023-04-28T08:17:47;100012.12;;;14.66;100.00
12073;BME280;6098;49.004;8.372;2023-04-28T08:32:41;100021.58;;;14.86;100.00
12073;BME280;6098;49.004;8.372;2023-04-28T08:47:34;100023.30;;;15.01;100.00
12073;BME280;6098;49.004;8.372;2023-04-28T09:02:27;100024.84;;;15.18;100.00
12073;BME280;6098;49.004;8.372;2023-04-28T09:17:22;100025.06;;;15.35;100.00
12073;BME280;6098;49.004;8.372;2023-04-28T09:32:21;100027.89;;;15.67;100.00
12073;BME280;6098;49.004;8.372;2023-04-28T09:47:19;100018.48;;;15.89;100.00
12073;BME280;6098;49.004;8.372;2023-04-28T10:02:20;100018.70;;;16.25;100.00
12073;BME280;6098;49.004;8.372;2023-04-28T10:17:12;100019.58;;;16.44;100.00
12073;BME280;6098;49.004;8.372;2023-04-28T10:32:20;100019.98;;;16.51;100.00
12073;BME280;6098;49.004;8.372;2023-04-28T10:47:16;100022.48;;;16.92;100.00
12073;BME280;6098;49.004;8.372;2023-04-28T11:02:34;100011.72;;;17.05;100.00
12073;BME280;6098;49.004;8.372;2023-04-28T11:17:34;100000.81;;;17.20;99.76
12073;BME280;6098;49.004;8.372;2023-04-28T11:32:32;99999.59;;;17.19;99.80
12073;BME280;6098;49.004;8.372;2023-04-28T11:47:30;99983.92;;;17.19;100.00
12073;BME280;6098;49.004;8.372;2023-04-28T12:02:25;99983.06;;;17.25;100.00
12073;BME280;6098;49.004;8.372;2023-04-28T12:32:19;99980.22;;;17.21;100.00
12073;BME280;6098;49.004;8.372;2023-04-28T12:47:12;99981.59;;;17.63;100.00
12073;BME280;6098;49.004;8.372;2023-04-28T13:02:05;99985.86;;;17.54;97.09
12073;BME280;6098;49.004;8.372;2023-04-28T13:17:01;99989.30;;;18.32;94.19
12073;BME280;6098;49.004;8.372;2023-04-28T13:31:54;99972.27;;;18.44;92.55
12073;BME280;6098;49.004;8.372;2023-04-28T13:46:46;99980.85;;;18.14;92.52
12073;BME280;6098;49.004;8.372;2023-04-28T14:01:38;99956.55;;;18.16;94.38
12073;BME280;6098;49.004;8.372;2023-04-28T14:16:31;99929.97;;;18.42;93.46
12073;BME280;6098;49.004;8.372;2023-04-28T14:31:24;99917.61;;;18.68;90.08
12073;BME280;6098;49.004;8.372;2023-04-28T14:46:15;99920.59;;;18.41;90.38
12073;BME280;6098;49.004;8.372;2023-04-28T15:01:09;99916.64;;;18.40;89.33
12073;BME280;6098;49.004;8.372;2023-04-28T15:16:01;99924.09;;;18.14;91.22
12073;BME280;6098;49.004;8.372;2023-04-28T15:30:53;99925.22;;;17.99;95.95
12073;BME280;6098;49.004;8.372;2023-04-28T15:45:47;99926.94;;;18.11;95.98
12073;BME280;6098;49.004;8.372;2023-04-28T16:00:38;99914.45;;;18.17;97.08
12073;BME280;6098;49.004;8.372;2023-04-28T16:15:35;99913.17;;;18.39;95.80
12073;BME280;6098;49.004;8.372;2023-04-28T16:30:31;99900.11;;;18.40;94.83
12073;BME280;6098;49.004;8.372;2023-04-28T16:45:24;99890.58;;;18.42;95.10
12073;BME280;6098;49.004;8.372;2023-04-28T17:00:15;99894.83;;;18.45;94.43
12073;BME280;6098;49.004;8.372;2023-04-28T17:15:12;99885.77;;;18.46;94.69
12073;BME280;6098;49.004;8.372;2023-04-28T17:30:02;99877.59;;;18.48;95.66
12073;BME280;6098;49.004;8.372;2023-04-28T17:44:53;99884.36;;;18.41;97.01
12073;BME280;6098;49.004;8.372;2023-04-28T17:59:48;99889.80;;;18.29;96.96
12073;BME280;6098;49.004;8.372;2023-04-28T18:14:36;99903.23;;;18.12;98.28
12073;BME280;6098;49.004;8.372;2023-04-28T18:29:29;99919.41;;;17.94;99.42
12073;BME280;6098;49.004;8.372;2023-04-28T18:44:22;99937.74;;;17.70;100.00
12073;BME280;6098;49.004;8.372;2023-04-28T18:59:14;99946.85;;;17.50;100.00
12073;BME280;6098;49.004;8.372;2023-04-28T19:14:07;99961.78;;;17.29;100.00
12073;BME280;6098;49.004;8.372;2023-04-28T19:29:00;99969.86;;;17.23;100.00
12073;BME280;6098;49.004;8.372;2023-04-28T19:43:52;99973.01;;;17.22;100.00
12073;BME280;6098;49.004;8.372;2023-04-28T19:58:44;99987.83;;;17.27;100.00
12073;BME280;6098;49.004;8.372;2023-04-28T20:13:40;99991.37;;;17.27;100.00
12073;BME280;6098;49.004;8.372;2023-04-28T20:28:34;99999.40;;;17.34;96.19
12073;BME280;6098;49.004;8.372;2023-04-28T20:43:26;100009.80;;;17.32;98.33
12073;BME280;6098;49.004;8.372;2023-04-28T20:58:20;100014.05;;;17.10;100.00
12073;BME280;6098;49.004;8.372;2023-04-28T21:13:11;100022.16;;;16.84;100.00
12073;BME280;6098;49.004;8.372;2023-04-28T21:28:04;100029.00;;;16.63;100.00
12073;BME280;6098;49.004;8.372;2023-04-28T21:42:55;100043.72;;;16.43;100.00
12073;BME280;6098;49.004;8.372;2023-04-28T21:57:47;100030.92;;;16.22;100.00
12073;BME280;6098;49.004;8.372;2023-04-28T22:12:39;100033.76;;;16.06;100.00
12073;BME280;6098;49.004;8.372;2023-04-28T22:27:30;100032.96;;;15.92;100.00
12073;BME280;6098;49.004;8.372;2023-04-28T22:42:23;100038.48;;;15.76;100.00
12073;BME280;6098;49.004;8.372;2023-04-28T22:57:15;100037.58;;;15.69;100.00
12073;BME280;6098;49.004;8.372;2023-04-28T23:12:07;100033.20;;;15.61;100.00
12073;BME280;6098;49.004;8.372;2023-04-28T23:26:58;100046.28;;;15.52;100.00
12073;BME280;6098;49.004;8.372;2023-04-28T23:41:50;100056.66;;;15.43;100.00
12073;BME280;6098;49.004;8.372;2023-04-28T23:56:43;100056.78;;;15.33;100.00
